sensor_id;sensor_type;location;lat;lon;timestamp;P1;durP1;ratioP1;P2;durP2;ratioP2
4325;SDS011;58429;49.826;10.880;2022-12-29T00:00:40;6.9;;;1.8;;
4325;SDS011;58429;49.826;10.880;2022-12-29T00:01:40;6.9;;;1.8;;
4325;SDS011;58429;49.826;10.880;2022-12-29T00:02:40;6.9;;;1.8;;
4325;SDS011;58429;49.826;10.880;2022-12-29T00:03:40;6.8;;;2.1;;
4325;SDS011;58429;49.826;10.880;2022-12-29T00:04:40;6.8;;;2.1;;
4325;SDS011;58429;49.826;10.880;2022-12-29T00:05:40;6.8;;;2.1;;
4325;SDS011;58429;49.826;10.880;2022-12-29T00:06:40;6.8;;;2;;
4325;SDS011;58429;49.826;10.880;2022-12-29T00:07:40;6.8;;;2;;
4325;SDS011;58429;49.826;10.880;2022-12-29T00:08:40;6.8;;;2;;
4325;SDS011;58429;49.826;10.880;2022-12-29T00:09:40;7.3;;;2.1;;
4325;SDS011;58429;49.826;10.880;2022-12-29T00:10:40;7.3;;;2.1;;
4325;SDS011;58429;49.826;10.880;2022-12-29T00:11:41;7.3;;;2.1;;
4325;SDS011;58429;49.826;10.880;2022-12-29T00:12:40;6;;;1.9;;
4325;SDS011;58429;49.826;10.880;2022-12-29T00:13:40;6;;;1.9;;
4325;SDS011;58429;49.826;10.880;2022-12-29T00:14:40;6;;;1.9;;
4325;SDS011;58429;49.826;10.880;2022-12-29T00:15:40;7.1;;;2;;
4325;SDS011;58429;49.826;10.880;2022-12-29T00:16:41;7.1;;;2;;
4325;SDS011;58429;49.826;10.880;2022-12-29T00:17:40;7.1;;;2;;
4325;SDS011;58429;49.826;10.880;2022-12-29T00:18:40;6.5;;;2.1;;
4325;SDS011;58429;49.826;10.880;2022-12-29T00:19:40;6.5;;;2.1;;
4325;SDS011;58429;49.826;10.880;2022-12-29T00:20:40;6.5;;;2.1;;
4325;SDS011;58429;49.826;10.880;2022-12-29T00:21:40;6.4;;;1.9;;
4325;SDS011;58429;49.826;10.880;2022-12-29T00:22:40;6.4;;;1.9;;
4325;SDS011;58429;49.826;10.880;2022-12-29T00:23:40;6.4;;;1.9;;
4325;SDS011;58429;49.826;10.880;2022-12-29T00:24:40;6;;;2;;
4325;SDS011;58429;49.826;10.880;2022-12-29T00:25:40;6;;;2;;
4325;SDS011;58429;49.826;10.880;2022-12-29T00:26:40;6;;;2;;
4325;SDS011;58429;49.826;10.880;2022-12-29T00:27:41;6.2;;;1.9;;
4325;SDS011;58429;49.826;10.880;2022-12-29T00:28:40;6.2;;;1.9;;
4325;SDS011;58429;49.826;10.880;2022-12-29T00:29:40;6.2;;;1.9;;
4325;SDS011;58429;49.826;10.880;2022-12-29T00:30:40;6;;;1.7;;
4325;SDS011;58429;49.826;10.880;2022-12-29T00:31:40;6;;;1.7;;
4325;SDS011;58429;49.826;10.880;2022-12-29T00:32:40;6;;;1.7;;
4325;SDS011;58429;49.826;10.880;2022-12-29T00:33:40;6.2;;;1.9;;
4325;SDS011;58429;49.826;10.880;2022-12-29T00:34:40;6.2;;;1.9;;
4325;SDS011;58429;49.826;10.880;2022-12-29T00:35:42;6.2;;;1.9;;
4325;SDS011;58429;49.826;10.880;2022-12-29T00:36:40;6.2;;;1.8;;
4325;SDS011;58429;49.826;10.880;2022-12-29T00:37:41;6.2;;;1.8;;
4325;SDS011;58429;49.826;10.880;2022-12-29T00:38:41;6.2;;;1.8;;
4325;SDS011;58429;49.826;10.880;2022-12-29T00:39:40;6.1;;;1.7;;
4325;SDS011;58429;49.826;10.880;2022-12-29T00:40:40;6.1;;;1.7;;
4325;SDS011;58429;49.826;10.880;2022-12-29T00:41:40;6.1;;;1.7;;
4325;SDS011;58429;49.826;10.880;2022-12-29T00:42:40;6.5;;;1.7;;
4325;SDS011;58429;49.826;10.880;2022-12-29T00:43:40;6.5;;;1.7;;
4325;SDS011;58429;49.826;10.880;2022-12-29T00:44:41;6.5;;;1.7;;
4325;SDS011;58429;49.826;10.880;2022-12-29T00:45:41;6.4;;;1.9;;
4325;SDS011;58429;49.826;10.880;2022-12-29T00:46:41;6.4;;;1.9;;
4325;SDS011;58429;49.826;10.880;2022-12-29T00:47:40;6.4;;;1.9;;
4325;SDS011;58429;49.826;10.880;2022-12-29T00:48:40;6;;;1.9;;
4325;SDS011;58429;49.826;10.880;2022-12-29T00:49:40;6;;;1.9;;
4325;SDS011;58429;49.826;10.880;2022-12-29T00:50:40;6;;;1.9;;
4325;SDS011;58429;49.826;10.880;2022-12-29T00:51:40;6.4;;;1.8;;
4325;SDS011;58429;49.826;10.880;2022-12-29T00:52:41;6.4;;;1.8;;
4325;SDS011;58429;49.826;10.880;2022-12-29T00:53:40;6.4;;;1.8;;
4325;SDS011;58429;49.826;10.880;2022-12-29T00:54:41;5.4;;;1.6;;
4325;SDS011;58429;49.826;10.880;2022-12-29T00:55:41;5.4;;;1.6;;
4325;SDS011;58429;49.826;10.880;2022-12-29T00:56:41;5.4;;;1.6;;
4325;SDS011;58429;49.826;10.880;2022-12-29T00:57:40;6.7;;;2.1;;
4325;SDS011;58429;49.826;10.880;2022-12-29T00:58:40;6.7;;;2.1;;
4325;SDS011;58429;49.826;10.880;2022-12-29T00:59:41;6.7;;;2.1;;
4325;SDS011;58429;49.826;10.880;2022-12-29T01:00:40;6.9;;;1.7;;
4325;SDS011;58429;49.826;10.880;2022-12-29T01:01:40;6.9;;;1.7;;
4325;SDS011;58429;49.826;10.880;2022-12-29T01:02:40;6.9;;;1.7;;
4325;SDS011;58429;49.826;10.880;2022-12-29T01:03:40;5.8;;;1.8;;
4325;SDS011;58429;49.826;10.880;2022-12-29T01:04:40;5.8;;;1.8;;
4325;SDS011;58429;49.826;10.880;2022-12-29T01:05:40;5.8;;;1.8;;
4325;SDS011;58429;49.826;10.880;2022-12-29T01:06:40;5.8;;;1.6;;
4325;SDS011;58429;49.826;10.880;2022-12-29T01:07:40;5.8;;;1.6;;
4325;SDS011;58429;49.826;10.880;2022-12-29T01:08:41;5.8;;;1.6;;
4325;SDS011;58429;49.826;10.880;2022-12-29T01:09:40;5.8;;;1.7;;
4325;SDS011;58429;49.826;10.880;2022-12-29T01:10:40;5.8;;;1.7;;
4325;SDS011;58429;49.826;10.880;2022-12-29T01:11:40;5.8;;;1.7;;
4325;SDS011;58429;49.826;10.880;2022-12-29T01:12:40;5.8;;;1.7;;
4325;SDS011;58429;49.826;10.880;2022-12-29T01:13:40;6.7;;;2.1;;
4325;SDS011;58429;49.826;10.880;2022-12-29T01:14:40;6.7;;;2.1;;
4325;SDS011;58429;49.826;10.880;2022-12-29T01:15:41;6.7;;;2.1;;
4325;SDS011;58429;49.826;10.880;2022-12-29T01:16:41;6.2;;;1.9;;
4325;SDS011;58429;49.826;10.880;2022-12-29T01:17:41;6.2;;;1.9;;
4325;SDS011;58429;49.826;10.880;2022-12-29T01:18:40;6.2;;;1.9;;
4325;SDS011;58429;49.826;10.880;2022-12-29T01:19:40;6.5;;;1.4;;
4325;SDS011;58429;49.826;10.880;2022-12-29T01:20:40;6.5;;;1.4;;
4325;SDS011;58429;49.826;10.880;2022-12-29T01:21:40;6.5;;;1.4;;
4325;SDS011;58429;49.826;10.880;2022-12-29T01:22:40;5.7;;;1.9;;
4325;SDS011;58429;49.826;10.880;2022-12-29T01:23:41;5.7;;;1.9;;
4325;SDS011;58429;49.826;10.880;2022-12-29T01:24:40;5.7;;;1.9;;
4325;SDS011;58429;49.826;10.880;2022-12-29T01:25:41;5.6;;;1.7;;
4325;SDS011;58429;49.826;10.880;2022-12-29T01:26:40;5.6;;;1.7;;
4325;SDS011;58429;49.826;10.880;2022-12-29T01:27:40;5.6;;;1.7;;
4325;SDS011;58429;49.826;10.880;2022-12-29T01:28:41;6.4;;;1.6;;
4325;SDS011;58429;49.826;10.880;2022-12-29T01:29:41;6.4;;;1.6;;
4325;SDS011;58429;49.826;10.880;2022-12-29T01:30:40;6.4;;;1.6;;
4325;SDS011;58429;49.826;10.880;2022-12-29T01:31:40;6.2;;;1.7;;
4325;SDS011;58429;49.826;10.880;2022-12-29T01:32:41;6.2;;;1.7;;
4325;SDS011;58429;49.826;10.880;2022-12-29T01:33:41;6.2;;;1.7;;
4325;SDS011;58429;49.826;10.880;2022-12-29T01:34:40;5.8;;;1.8;;
4325;SDS011;58429;49.826;10.880;2022-12-29T01:35:41;5.8;;;1.8;;
4325;SDS011;58429;49.826;10.880;2022-12-29T01:36:40;5.8;;;1.8;;
4325;SDS011;58429;49.826;10.880;2022-12-29T01:37:40;5.9;;;1.8;;
4325;SDS011;58429;49.826;10.880;2022-12-29T01:38:41;5.9;;;1.8;;
4325;SDS011;58429;49.826;10.880;2022-12-29T01:39:40;5.9;;;1.8;;
4325;SDS011;58429;49.826;10.880;2022-12-29T01:40:44;6.1;;;1.5;;
4325;SDS011;58429;49.826;10.880;2022-12-29T01:41:40;6.1;;;1.5;;
4325;SDS011;58429;49.826;10.880;2022-12-29T01:42:40;6.1;;;1.5;;
4325;SDS011;58429;49.826;10.880;2022-12-29T01:43:41;6;;;1.6;;
4325;SDS011;58429;49.826;10.880;2022-12-29T01:44:57;6;;;1.6;;
4325;SDS011;58429;49.826;10.880;2022-12-29T01:45:42;6;;;1.6;;
4325;SDS011;58429;49.826;10.880;2022-12-29T01:46:41;5.5;;;1.4;;
4325;SDS011;58429;49.826;10.880;2022-12-29T01:47:41;5.5;;;1.4;;
4325;SDS011;58429;49.826;10.880;2022-12-29T01:48:41;5.5;;;1.4;;
4325;SDS011;58429;49.826;10.880;2022-12-29T01:49:41;5.6;;;1.5;;
4325;SDS011;58429;49.826;10.880;2022-12-29T01:50:41;5.6;;;1.5;;
4325;SDS011;58429;49.826;10.880;2022-12-29T01:51:42;5.6;;;1.5;;
4325;SDS011;58429;49.826;10.880;2022-12-29T01:52:41;6.2;;;1.6;;
4325;SDS011;58429;49.826;10.880;2022-12-29T01:53:40;6.2;;;1.6;;
4325;SDS011;58429;49.826;10.880;2022-12-29T01:54:41;6.2;;;1.6;;
4325;SDS011;58429;49.826;10.880;2022-12-29T01:55:42;6.3;;;1.7;;
4325;SDS011;58429;49.826;10.880;2022-12-29T01:56:40;6.3;;;1.7;;
4325;SDS011;58429;49.826;10.880;2022-12-29T01:57:41;6.3;;;1.7;;
4325;SDS011;58429;49.826;10.880;2022-12-29T01:58:41;6.1;;;1.8;;
4325;SDS011;58429;49.826;10.880;2022-12-29T01:59:41;6.1;;;1.8;;
4325;SDS011;58429;49.826;10.880;2022-12-29T02:00:40;6.1;;;1.8;;
4325;SDS011;58429;49.826;10.880;2022-12-29T02:01:40;6;;;1.6;;
4325;SDS011;58429;49.826;10.880;2022-12-29T02:02:41;6;;;1.6;;
4325;SDS011;58429;49.826;10.880;2022-12-29T02:03:40;6;;;1.6;;
4325;SDS011;58429;49.826;10.880;2022-12-29T02:04:41;6.7;;;1.7;;
4325;SDS011;58429;49.826;10.880;2022-12-29T02:05:42;6.7;;;1.7;;
4325;SDS011;58429;49.826;10.880;2022-12-29T02:06:41;6.7;;;1.7;;
4325;SDS011;58429;49.826;10.880;2022-12-29T02:07:40;5.7;;;1.6;;
4325;SDS011;58429;49.826;10.880;2022-12-29T02:08:41;5.7;;;1.6;;
4325;SDS011;58429;49.826;10.880;2022-12-29T02:09:40;5.7;;;1.6;;
4325;SDS011;58429;49.826;10.880;2022-12-29T02:10:40;6.5;;;1.6;;
4325;SDS011;58429;49.826;10.880;2022-12-29T02:11:40;6.5;;;1.6;;
4325;SDS011;58429;49.826;10.880;2022-12-29T02:12:40;6.5;;;1.6;;
4325;SDS011;58429;49.826;10.880;2022-12-29T02:13:40;5.1;;;1.4;;
4325;SDS011;58429;49.826;10.880;2022-12-29T02:14:40;5.1;;;1.4;;
4325;SDS011;58429;49.826;10.880;2022-12-29T02:15:43;5.1;;;1.4;;
4325;SDS011;58429;49.826;10.880;2022-12-29T02:16:45;5.3;;;1.4;;
4325;SDS011;58429;49.826;10.880;2022-12-29T02:17:45;5.3;;;1.4;;
4325;SDS011;58429;49.826;10.880;2022-12-29T02:18:43;5.3;;;1.4;;
4325;SDS011;58429;49.826;10.880;2022-12-29T02:19:48;5.8;;;1.4;;
4325;SDS011;58429;49.826;10.880;2022-12-29T02:20:45;5.8;;;1.4;;
4325;SDS011;58429;49.826;10.880;2022-12-29T02:21:45;5.8;;;1.4;;
4325;SDS011;58429;49.826;10.880;2022-12-29T02:22:42;5.9;;;1.4;;
4325;SDS011;58429;49.826;10.880;2022-12-29T02:23:48;5.9;;;1.4;;
4325;SDS011;58429;49.826;10.880;2022-12-29T02:25:48;5.7;;;1.5;;
4325;SDS011;58429;49.826;10.880;2022-12-29T02:25:49;5.9;;;1.4;;
4325;SDS011;58429;49.826;10.880;2022-12-29T02:26:44;5.7;;;1.5;;
4325;SDS011;58429;49.826;10.880;2022-12-29T02:27:48;5.7;;;1.5;;
4325;SDS011;58429;49.826;10.880;2022-12-29T02:29:46;6.1;;;1.8;;
4325;SDS011;58429;49.826;10.880;2022-12-29T02:29:51;6.1;;;1.8;;
4325;SDS011;58429;49.826;10.880;2022-12-29T02:30:45;6.1;;;1.8;;
4325;SDS011;58429;49.826;10.880;2022-12-29T02:31:41;6;;;1.4;;
4325;SDS011;58429;49.826;10.880;2022-12-29T02:32:43;6;;;1.4;;
4325;SDS011;58429;49.826;10.880;2022-12-29T02:33:44;6;;;1.4;;
4325;SDS011;58429;49.826;10.880;2022-12-29T02:34:43;4.4;;;1.3;;
4325;SDS011;58429;49.826;10.880;2022-12-29T02:35:43;4.4;;;1.3;;
4325;SDS011;58429;49.826;10.880;2022-12-29T02:36:42;4.4;;;1.3;;
4325;SDS011;58429;49.826;10.880;2022-12-29T02:37:41;5.9;;;1.6;;
4325;SDS011;58429;49.826;10.880;2022-12-29T02:38:45;5.9;;;1.6;;
4325;SDS011;58429;49.826;10.880;2022-12-29T02:39:41;5.9;;;1.6;;
4325;SDS011;58429;49.826;10.880;2022-12-29T02:40:42;5.2;;;1.4;;
4325;SDS011;58429;49.826;10.880;2022-12-29T02:41:42;5.2;;;1.4;;
4325;SDS011;58429;49.826;10.880;2022-12-29T02:42:41;5.2;;;1.4;;
4325;SDS011;58429;49.826;10.880;2022-12-29T02:43:43;4.7;;;1.3;;
4325;SDS011;58429;49.826;10.880;2022-12-29T02:44:44;4.7;;;1.3;;
4325;SDS011;58429;49.826;10.880;2022-12-29T02:45:43;4.7;;;1.3;;
4325;SDS011;58429;49.826;10.880;2022-12-29T02:46:42;5.5;;;1.3;;
4325;SDS011;58429;49.826;10.880;2022-12-29T02:47:41;5.5;;;1.3;;
4325;SDS011;58429;49.826;10.880;2022-12-29T02:48:41;5.5;;;1.3;;
4325;SDS011;58429;49.826;10.880;2022-12-29T02:49:43;5.2;;;1.4;;
4325;SDS011;58429;49.826;10.880;2022-12-29T02:50:42;5.2;;;1.4;;
4325;SDS011;58429;49.826;10.880;2022-12-29T02:51:43;5.2;;;1.4;;
4325;SDS011;58429;49.826;10.880;2022-12-29T02:52:43;5;;;1.4;;
4325;SDS011;58429;49.826;10.880;2022-12-29T02:53:41;5;;;1.4;;
4325;SDS011;58429;49.826;10.880;2022-12-29T02:54:40;5;;;1.4;;
4325;SDS011;58429;49.826;10.880;2022-12-29T02:55:47;6.3;;;1.6;;
4325;SDS011;58429;49.826;10.880;2022-12-29T02:56:40;6.3;;;1.6;;
4325;SDS011;58429;49.826;10.880;2022-12-29T02:57:40;6.3;;;1.6;;
4325;SDS011;58429;49.826;10.880;2022-12-29T02:58:40;5.6;;;1.4;;
4325;SDS011;58429;49.826;10.880;2022-12-29T02:59:41;5.6;;;1.4;;
4325;SDS011;58429;49.826;10.880;2022-12-29T03:00:41;5.6;;;1.4;;
4325;SDS011;58429;49.826;10.880;2022-12-29T03:01:45;5.6;;;1.4;;
4325;SDS011;58429;49.826;10.880;2022-12-29T03:02:46;4.6;;;1.3;;
4325;SDS011;58429;49.826;10.880;2022-12-29T03:03:44;4.6;;;1.3;;
4325;SDS011;58429;49.826;10.880;2022-12-29T03:04:43;4.6;;;1.3;;
4325;SDS011;58429;49.826;10.880;2022-12-29T03:05:46;5.6;;;1.4;;
4325;SDS011;58429;49.826;10.880;2022-12-29T03:06:43;5.6;;;1.4;;
4325;SDS011;58429;49.826;10.880;2022-12-29T03:07:43;5.6;;;1.4;;
4325;SDS011;58429;49.826;10.880;2022-12-29T03:08:43;5.2;;;1.6;;
4325;SDS011;58429;49.826;10.880;2022-12-29T03:09:42;5.2;;;1.6;;
4325;SDS011;58429;49.826;10.880;2022-12-29T03:10:42;5.2;;;1.6;;
4325;SDS011;58429;49.826;10.880;2022-12-29T03:11:41;5.4;;;1.4;;
4325;SDS011;58429;49.826;10.880;2022-12-29T03:12:41;5.4;;;1.4;;
4325;SDS011;58429;49.826;10.880;2022-12-29T03:13:42;5.4;;;1.4;;
4325;SDS011;58429;49.826;10.880;2022-12-29T03:14:44;5.3;;;1.5;;
4325;SDS011;58429;49.826;10.880;2022-12-29T03:15:42;5.3;;;1.5;;
4325;SDS011;58429;49.826;10.880;2022-12-29T03:16:43;5.3;;;1.5;;
4325;SDS011;58429;49.826;10.880;2022-12-29T03:17:45;5;;;1.4;;
4325;SDS011;58429;49.826;10.880;2022-12-29T03:18:45;5;;;1.4;;
4325;SDS011;58429;49.826;10.880;2022-12-29T03:19:41;5;;;1.4;;
4325;SDS011;58429;49.826;10.880;2022-12-29T03:20:41;6.4;;;1.5;;
4325;SDS011;58429;49.826;10.880;2022-12-29T03:21:42;6.4;;;1.5;;
4325;SDS011;58429;49.826;10.880;2022-12-29T03:22:41;6.4;;;1.5;;
4325;SDS011;58429;49.826;10.880;2022-12-29T03:23:41;5.6;;;1.6;;
4325;SDS011;58429;49.826;10.880;2022-12-29T03:24:42;5.6;;;1.6;;
4325;SDS011;58429;49.826;10.880;2022-12-29T03:25:41;5.6;;;1.6;;
4325;SDS011;58429;49.826;10.880;2022-12-29T03:26:41;5.1;;;1.4;;
4325;SDS011;58429;49.826;10.880;2022-12-29T03:27:42;5.1;;;1.4;;
4325;SDS011;58429;49.826;10.880;2022-12-29T03:28:42;5.1;;;1.4;;
4325;SDS011;58429;49.826;10.880;2022-12-29T03:29:42;4.9;;;1.4;;
4325;SDS011;58429;49.826;10.880;2022-12-29T03:30:40;4.9;;;1.4;;
4325;SDS011;58429;49.826;10.880;2022-12-29T03:31:41;4.9;;;1.4;;
4325;SDS011;58429;49.826;10.880;2022-12-29T03:32:42;5.2;;;1.3;;
4325;SDS011;58429;49.826;10.880;2022-12-29T03:33:41;5.2;;;1.3;;
4325;SDS011;58429;49.826;10.880;2022-12-29T03:34:40;5.2;;;1.3;;
4325;SDS011;58429;49.826;10.880;2022-12-29T03:35:41;5.1;;;1.4;;
4325;SDS011;58429;49.826;10.880;2022-12-29T03:36:42;5.1;;;1.4;;
4325;SDS011;58429;49.826;10.880;2022-12-29T03:37:41;5.1;;;1.4;;
4325;SDS011;58429;49.826;10.880;2022-12-29T03:38:42;5.8;;;1.4;;
4325;SDS011;58429;49.826;10.880;2022-12-29T03:39:40;5.8;;;1.4;;
4325;SDS011;58429;49.826;10.880;2022-12-29T03:40:41;5.8;;;1.4;;
4325;SDS011;58429;49.826;10.880;2022-12-29T03:41:41;4.9;;;1.5;;
4325;SDS011;58429;49.826;10.880;2022-12-29T03:42:41;4.9;;;1.5;;
4325;SDS011;58429;49.826;10.880;2022-12-29T03:43:40;4.9;;;1.5;;
4325;SDS011;58429;49.826;10.880;2022-12-29T03:44:41;5;;;1.4;;
4325;SDS011;58429;49.826;10.880;2022-12-29T03:45:41;5;;;1.4;;
4325;SDS011;58429;49.826;10.880;2022-12-29T03:46:40;5;;;1.4;;
4325;SDS011;58429;49.826;10.880;2022-12-29T03:47:41;5.9;;;1.5;;
4325;SDS011;58429;49.826;10.880;2022-12-29T03:48:40;5.9;;;1.5;;
4325;SDS011;58429;49.826;10.880;2022-12-29T03:49:41;5.9;;;1.5;;
4325;SDS011;58429;49.826;10.880;2022-12-29T03:50:41;7.9;;;1.8;;
4325;SDS011;58429;49.826;10.880;2022-12-29T03:51:40;7.9;;;1.8;;
4325;SDS011;58429;49.826;10.880;2022-12-29T03:52:41;7.9;;;1.8;;
4325;SDS011;58429;49.826;10.880;2022-12-29T03:53:41;6.7;;;1.5;;
4325;SDS011;58429;49.826;10.880;2022-12-29T03:54:41;6.7;;;1.5;;
4325;SDS011;58429;49.826;10.880;2022-12-29T03:55:41;6.7;;;1.5;;
4325;SDS011;58429;49.826;10.880;2022-12-29T03:56:41;5.6;;;1.4;;
4325;SDS011;58429;49.826;10.880;2022-12-29T03:57:41;5.6;;;1.4;;
4325;SDS011;58429;49.826;10.880;2022-12-29T03:58:41;5.6;;;1.4;;
4325;SDS011;58429;49.826;10.880;2022-12-29T03:59:41;4.6;;;1.3;;
4325;SDS011;58429;49.826;10.880;2022-12-29T04:00:41;4.6;;;1.3;;
4325;SDS011;58429;49.826;10.880;2022-12-29T04:01:41;4.6;;;1.3;;
4325;SDS011;58429;49.826;10.880;2022-12-29T04:02:41;5.8;;;1.5;;
4325;SDS011;58429;49.826;10.880;2022-12-29T04:03:41;5.8;;;1.5;;
4325;SDS011;58429;49.826;10.880;2022-12-29T04:04:41;5.8;;;1.5;;
4325;SDS011;58429;49.826;10.880;2022-12-29T04:05:41;5.7;;;1.3;;
4325;SDS011;58429;49.826;10.880;2022-12-29T04:06:41;5.7;;;1.3;;
4325;SDS011;58429;49.826;10.880;2022-12-29T04:07:41;5.7;;;1.3;;
4325;SDS011;58429;49.826;10.880;2022-12-29T04:08:41;5.2;;;1.5;;
4325;SDS011;58429;49.826;10.880;2022-12-29T04:09:41;5.2;;;1.5;;
4325;SDS011;58429;49.826;10.880;2022-12-29T04:10:41;5.2;;;1.5;;
4325;SDS011;58429;49.826;10.880;2022-12-29T04:11:41;5.9;;;1.5;;
4325;SDS011;58429;49.826;10.880;2022-12-29T04:12:41;5.9;;;1.5;;
4325;SDS011;58429;49.826;10.880;2022-12-29T04:13:41;5.9;;;1.5;;
4325;SDS011;58429;49.826;10.880;2022-12-29T04:14:41;5.5;;;1.6;;
4325;SDS011;58429;49.826;10.880;2022-12-29T04:15:42;5.5;;;1.6;;
4325;SDS011;58429;49.826;10.880;2022-12-29T04:16:41;5.5;;;1.6;;
4325;SDS011;58429;49.826;10.880;2022-12-29T04:17:41;5.3;;;1.4;;
4325;SDS011;58429;49.826;10.880;2022-12-29T04:18:41;5.3;;;1.4;;
4325;SDS011;58429;49.826;10.880;2022-12-29T04:19:41;5.3;;;1.4;;
4325;SDS011;58429;49.826;10.880;2022-12-29T04:20:41;6;;;1.5;;
4325;SDS011;58429;49.826;10.880;2022-12-29T04:21:41;6;;;1.5;;
4325;SDS011;58429;49.826;10.880;2022-12-29T04:22:41;6;;;1.5;;
4325;SDS011;58429;49.826;10.880;2022-12-29T04:23:41;5.8;;;1.5;;
4325;SDS011;58429;49.826;10.880;2022-12-29T04:24:41;5.8;;;1.5;;
4325;SDS011;58429;49.826;10.880;2022-12-29T04:25:44;5.8;;;1.5;;
4325;SDS011;58429;49.826;10.880;2022-12-29T04:26:41;4.9;;;1.4;;
4325;SDS011;58429;49.826;10.880;2022-12-29T04:27:41;4.9;;;1.4;;
4325;SDS011;58429;49.826;10.880;2022-12-29T04:28:41;4.9;;;1.4;;
4325;SDS011;58429;49.826;10.880;2022-12-29T04:29:41;4.6;;;1.3;;
4325;SDS011;58429;49.826;10.880;2022-12-29T04:30:41;4.6;;;1.3;;
4325;SDS011;58429;49.826;10.880;2022-12-29T04:31:41;4.6;;;1.3;;
4325;SDS011;58429;49.826;10.880;2022-12-29T04:32:41;5.2;;;1.5;;
4325;SDS011;58429;49.826;10.880;2022-12-29T04:33:41;5.2;;;1.5;;
4325;SDS011;58429;49.826;10.880;2022-12-29T04:34:41;5.2;;;1.5;;
4325;SDS011;58429;49.826;10.880;2022-12-29T04:35:41;4.9;;;1.4;;
4325;SDS011;58429;49.826;10.880;2022-12-29T04:36:41;4.9;;;1.4;;
4325;SDS011;58429;49.826;10.880;2022-12-29T04:37:41;4.9;;;1.4;;
4325;SDS011;58429;49.826;10.880;2022-12-29T04:38:41;6;;;1.7;;
4325;SDS011;58429;49.826;10.880;2022-12-29T04:39:41;6;;;1.7;;
4325;SDS011;58429;49.826;10.880;2022-12-29T04:40:41;6;;;1.7;;
4325;SDS011;58429;49.826;10.880;2022-12-29T04:41:41;5.2;;;1.5;;
4325;SDS011;58429;49.826;10.880;2022-12-29T04:42:41;5.2;;;1.5;;
4325;SDS011;58429;49.826;10.880;2022-12-29T04:43:41;5.2;;;1.5;;
4325;SDS011;58429;49.826;10.880;2022-12-29T04:44:41;6;;;1.5;;
4325;SDS011;58429;49.826;10.880;2022-12-29T04:45:42;6;;;1.5;;
4325;SDS011;58429;49.826;10.880;2022-12-29T04:46:41;6;;;1.5;;
4325;SDS011;58429;49.826;10.880;2022-12-29T04:47:41;5.3;;;1.4;;
4325;SDS011;58429;49.826;10.880;2022-12-29T04:48:41;5.3;;;1.4;;
4325;SDS011;58429;49.826;10.880;2022-12-29T04:49:41;5.3;;;1.4;;
4325;SDS011;58429;49.826;10.880;2022-12-29T04:50:41;7.4;;;1.8;;
4325;SDS011;58429;49.826;10.880;2022-12-29T04:51:41;7.4;;;1.8;;
4325;SDS011;58429;49.826;10.880;2022-12-29T04:52:41;7.4;;;1.8;;
4325;SDS011;58429;49.826;10.880;2022-12-29T04:53:41;7.4;;;1.8;;
4325;SDS011;58429;49.826;10.880;2022-12-29T04:54:41;5.2;;;1.5;;
4325;SDS011;58429;49.826;10.880;2022-12-29T04:55:41;5.2;;;1.5;;
4325;SDS011;58429;49.826;10.880;2022-12-29T04:56:41;5.2;;;1.5;;
4325;SDS011;58429;49.826;10.880;2022-12-29T04:57:41;5.3;;;1.4;;
4325;SDS011;58429;49.826;10.880;2022-12-29T04:58:41;5.3;;;1.4;;
4325;SDS011;58429;49.826;10.880;2022-12-29T04:59:41;5.3;;;1.4;;
4325;SDS011;58429;49.826;10.880;2022-12-29T05:00:41;5.9;;;1.3;;
4325;SDS011;58429;49.826;10.880;2022-12-29T05:01:41;5.9;;;1.3;;
4325;SDS011;58429;49.826;10.880;2022-12-29T05:02:41;5.9;;;1.3;;
4325;SDS011;58429;49.826;10.880;2022-12-29T05:03:41;6.1;;;1.4;;
4325;SDS011;58429;49.826;10.880;2022-12-29T05:04:41;6.1;;;1.4;;
4325;SDS011;58429;49.826;10.880;2022-12-29T05:05:41;6.1;;;1.4;;
4325;SDS011;58429;49.826;10.880;2022-12-29T05:06:41;6.1;;;1.5;;
4325;SDS011;58429;49.826;10.880;2022-12-29T05:07:41;6.1;;;1.5;;
4325;SDS011;58429;49.826;10.880;2022-12-29T05:08:41;6.1;;;1.5;;
4325;SDS011;58429;49.826;10.880;2022-12-29T05:09:41;4.9;;;1.3;;
4325;SDS011;58429;49.826;10.880;2022-12-29T05:10:43;4.9;;;1.3;;
4325;SDS011;58429;49.826;10.880;2022-12-29T05:11:41;4.9;;;1.3;;
4325;SDS011;58429;49.826;10.880;2022-12-29T05:12:41;5;;;1.4;;
4325;SDS011;58429;49.826;10.880;2022-12-29T05:13:41;5;;;1.4;;
4325;SDS011;58429;49.826;10.880;2022-12-29T05:14:41;5;;;1.4;;
4325;SDS011;58429;49.826;10.880;2022-12-29T05:15:41;5.6;;;1.5;;
4325;SDS011;58429;49.826;10.880;2022-12-29T05:16:41;5.6;;;1.5;;
4325;SDS011;58429;49.826;10.880;2022-12-29T05:17:41;5.6;;;1.5;;
4325;SDS011;58429;49.826;10.880;2022-12-29T05:18:41;5.5;;;1.4;;
4325;SDS011;58429;49.826;10.880;2022-12-29T05:19:41;5.5;;;1.4;;
4325;SDS011;58429;49.826;10.880;2022-12-29T05:20:41;5.5;;;1.4;;
4325;SDS011;58429;49.826;10.880;2022-12-29T05:21:41;6.3;;;1.4;;
4325;SDS011;58429;49.826;10.880;2022-12-29T05:22:41;6.3;;;1.4;;
4325;SDS011;58429;49.826;10.880;2022-12-29T05:23:41;6.3;;;1.4;;
4325;SDS011;58429;49.826;10.880;2022-12-29T05:24:41;6.1;;;1.4;;
4325;SDS011;58429;49.826;10.880;2022-12-29T05:25:41;6.1;;;1.4;;
4325;SDS011;58429;49.826;10.880;2022-12-29T05:26:41;6.1;;;1.4;;
4325;SDS011;58429;49.826;10.880;2022-12-29T05:27:41;6.1;;;1.6;;
4325;SDS011;58429;49.826;10.880;2022-12-29T05:28:41;6.1;;;1.6;;
4325;SDS011;58429;49.826;10.880;2022-12-29T05:29:41;6.1;;;1.6;;
4325;SDS011;58429;49.826;10.880;2022-12-29T05:30:41;6.1;;;1.9;;
4325;SDS011;58429;49.826;10.880;2022-12-29T05:31:41;6.1;;;1.9;;
4325;SDS011;58429;49.826;10.880;2022-12-29T05:32:41;6.1;;;1.9;;
4325;SDS011;58429;49.826;10.880;2022-12-29T05:33:41;5.3;;;1.4;;
4325;SDS011;58429;49.826;10.880;2022-12-29T05:34:41;5.3;;;1.4;;
4325;SDS011;58429;49.826;10.880;2022-12-29T05:35:41;5.3;;;1.4;;
4325;SDS011;58429;49.826;10.880;2022-12-29T05:36:41;5.5;;;1.4;;
4325;SDS011;58429;49.826;10.880;2022-12-29T05:37:41;5.5;;;1.4;;
4325;SDS011;58429;49.826;10.880;2022-12-29T05:38:41;5.5;;;1.4;;
4325;SDS011;58429;49.826;10.880;2022-12-29T05:39:41;6;;;1.4;;
4325;SDS011;58429;49.826;10.880;2022-12-29T05:40:41;6;;;1.4;;
4325;SDS011;58429;49.826;10.880;2022-12-29T05:41:41;6;;;1.4;;
4325;SDS011;58429;49.826;10.880;2022-12-29T05:42:41;6.5;;;1.5;;
4325;SDS011;58429;49.826;10.880;2022-12-29T05:43:41;6.5;;;1.5;;
4325;SDS011;58429;49.826;10.880;2022-12-29T05:44:41;6.5;;;1.5;;
4325;SDS011;58429;49.826;10.880;2022-12-29T05:45:41;5.4;;;1.3;;
4325;SDS011;58429;49.826;10.880;2022-12-29T05:46:41;5.4;;;1.3;;
4325;SDS011;58429;49.826;10.880;2022-12-29T05:47:41;5.4;;;1.3;;
4325;SDS011;58429;49.826;10.880;2022-12-29T05:48:41;5.4;;;1.4;;
4325;SDS011;58429;49.826;10.880;2022-12-29T05:49:41;5.4;;;1.4;;
4325;SDS011;58429;49.826;10.880;2022-12-29T05:50:41;5.4;;;1.4;;
4325;SDS011;58429;49.826;10.880;2022-12-29T05:51:41;7.3;;;1.5;;
4325;SDS011;58429;49.826;10.880;2022-12-29T05:52:41;7.3;;;1.5;;
4325;SDS011;58429;49.826;10.880;2022-12-29T05:53:41;7.3;;;1.5;;
4325;SDS011;58429;49.826;10.880;2022-12-29T05:54:41;7.5;;;1.4;;
4325;SDS011;58429;49.826;10.880;2022-12-29T05:55:41;7.5;;;1.4;;
4325;SDS011;58429;49.826;10.880;2022-12-29T05:56:41;7.5;;;1.4;;
4325;SDS011;58429;49.826;10.880;2022-12-29T05:57:41;5.5;;;1.5;;
4325;SDS011;58429;49.826;10.880;2022-12-29T05:58:41;5.5;;;1.5;;
4325;SDS011;58429;49.826;10.880;2022-12-29T05:59:41;5.5;;;1.5;;
4325;SDS011;58429;49.826;10.880;2022-12-29T06:00:41;4.7;;;1.2;;
4325;SDS011;58429;49.826;10.880;2022-12-29T06:01:41;4.7;;;1.2;;
4325;SDS011;58429;49.826;10.880;2022-12-29T06:02:41;4.7;;;1.2;;
4325;SDS011;58429;49.826;10.880;2022-12-29T06:03:41;6.1;;;1.5;;
4325;SDS011;58429;49.826;10.880;2022-12-29T06:04:41;6.1;;;1.5;;
4325;SDS011;58429;49.826;10.880;2022-12-29T06:05:41;6.1;;;1.5;;
4325;SDS011;58429;49.826;10.880;2022-12-29T06:06:41;6.3;;;1.3;;
4325;SDS011;58429;49.826;10.880;2022-12-29T06:07:41;6.3;;;1.3;;
4325;SDS011;58429;49.826;10.880;2022-12-29T06:08:41;6.3;;;1.3;;
4325;SDS011;58429;49.826;10.880;2022-12-29T06:09:41;6;;;1.5;;
4325;SDS011;58429;49.826;10.880;2022-12-29T06:10:41;6;;;1.5;;
4325;SDS011;58429;49.826;10.880;2022-12-29T06:11:41;6;;;1.5;;
4325;SDS011;58429;49.826;10.880;2022-12-29T06:12:41;6.4;;;1.5;;
4325;SDS011;58429;49.826;10.880;2022-12-29T06:13:41;6.4;;;1.5;;
4325;SDS011;58429;49.826;10.880;2022-12-29T06:14:41;6.4;;;1.5;;